Share

Ouzinkie, AK (99644)

Kodiak (PADQ) Elev 112 ft | 57.75 °N, 152.49 °W | Change Station

Current weather conditions updated 14 minutes ago

Overcast
Overcast
41 °F
Feels Like 33 °F
N
15
Wind Variable Wind from NE
Sunrise 6:56 AM
Sunset 9:31 PM
Moon Waning Gibbous

Tomorrow is forecast to be Cooler than today. Mix of rain and snow.

Pressure 29.47 in
Visibility 10.0 miles
Clouds Mostly Cloudy 1300 ft
Mostly Cloudy 1800 ft
Overcast 3800 ft
Windchill 33 °F
Dew Point 38 °F
Humidity 89%
Rainfall 0.03 in
Snow Depth Not available.
UV 0 out of 16
Pollen Not available.
Air Quality Not available.
Flu Activity Sporadic
METAR PADQ 190453Z 05013KT 10SM BKN013 BKN018 OVC038 05/03 A2946 RMK AO2 RAB17E26 SLP978 P0000 T00500033 $

More Conditions Fewer Conditions

Pressure 29.47 in
Visibility 10.0 miles
Clouds Mostly Cloudy 1300 ft
Mostly Cloudy 1800 ft
Overcast 3800 ft
Windchill 33 °F
Dew Point 38 °F
Humidity 89%
Rainfall 0.03 in
Snow Depth Not available.
UV 0 out of 16
Pollen Not available.
Air Quality Not available.
Flu Activity Sporadic
METAR PADQ 190453Z 05013KT 10SM BKN013 BKN018 OVC038 05/03 A2946 RMK AO2 RAB17E26 SLP978 P0000 T00500033 $

More Conditions Fewer Conditions

10-Day Weather Forecast

Almanac

Astronomy

Apr. 18, 2014 Rise Set
Actual Time 6:56 AM AKDT 9:31 PM AKDT
Civil Twilight 6:13 AM AKDT 10:15 PM AKDT
Nautical Twilight 5:17 AM AKDT 11:11 PM AKDT
Astronomical Twilight 4:04 AM AKDT 12:27 AM AKDT
Moon 12:54 AM AKDT (4/18) 8:59 AM AKDT (4/18)
Length of Visible Light 16h 01m
Length of Day
14h 35m
Tomorrow will be 4m 47s longer.
Waning Gibbous, 83% of the Moon is Illuminated
Apr 19
Waning Gibbous
Apr 22
Last Quarter
Apr 29
New
May 6
First Quarter
May 14
Full

Yesterday's Extremes

State Highs State Lows

Community

  • Sunset Silhouettes
    Sunset Silhouettes
  • FL sunset Perico Isle
    FL sunset Perico Isle
  • Cloudy spring view
    Cloudy spring view
  • Old barn
    Old barn
  • What's for Lunch?
    What's for Lunch?

WunderPhotos

Upload Photos

1,702,645 photos uploaded!

WunderBlogs® & News

Nearby

Snow Depth

Station Depth Elevation
Port Graham 8 in 300 ft
Nuka Glacier 34 in 1250 ft
Mcneil Canyon 9 in 1320 ft
MF Bradley River 22 in 2300 ft
Cooper Lake 21 in 1200 ft

Coastal Water Temperatures

Place Temperature
No Stations Reporting

Earthquake Activity

City Distance Mag. Time & Date
No recent earthquake activity has been reported nearby.
Minimum magnitude displayed is 2.5.

Nearby Weather Stations

Station Location Temp. Windchill Dew Point Humidity Wind Precip. Elev Updated Type
HADS TERROR R AT MOUTH NR KODIAK AK , Port Lions, AK 38 °F 38 °F - - North  at  - 0.00 in / hr 215 ft 8:00 PM AKDT MADIS

Show More Stations Show Fewer Stations

What do you think?

We're not finished. Please let us know what you like, what you don't like, and what you are still missing.